METAR

Letisková meteorologická správa METAR

Meteorologické informácie z ďalších profesionálnych meteorologických staníc SHMÚ zobrazené v tvare zodpovedajúcom pravidlám kódovania správ METAR sú uvedené v položke „METSYN

Informácie o správe METAR

19.10.2018 - 07:30 UTC

METAR LZIB 190730Z 25004KT 7000 MIFG NSC 14/10 Q1020 NOSIG=
METAR LZKZ 190730Z VRB02KT CAVOK 16/09 Q1020 NOSIG=
METAR LZPP 190730Z 02006KT CAVOK 12/09 Q1020=
METAR LZSL 190730Z 00000KT 9999 FEW050 BKN100 09/07 Q1021=
METAR LZTT 190730Z 26003KT 9999 FEW026 BKN096 10/07 Q1021 NOSIG=
METAR LZZI 190730Z VRB02KT 4600 BR NSC 10/09 Q1021=

19.10.2018 - 07:00 UTC

METAR LZIB 190700Z 25002KT 7000 MIFG NSC 11/09 Q1020 NOSIG=
METAR LZKZ 190700Z 13003KT CAVOK 15/09 Q1019 NOSIG=
METAR LZPP 190700Z 02006KT CAVOK 11/08 Q1020=
METAR LZSL 190700Z 00000KT 9999 FEW050 BKN100 09/07 Q1021=
METAR LZTT 190700Z 25004KT 9999 FEW026 BKN093 09/07 Q1021 NOSIG=
METAR LZZI 190700Z VRB01KT 5000 BR FEW044 09/09 Q1021=

19.10.2018 - 07:00 UTC

METAR LZMC 190700Z 00000KT 3000 BCFG BR BKN006 06/05
Q1022=
METAR LZPW 190700Z VRB01KT CAVOK 12/09 Q1020=

skok na menu ↑


skok na začiatok stránky ↑